sensor_id;sensor_type;location;lat;lon;timestamp;temperature;humidity
939;DHT22;456;53.584;9.968;2023-04-01T00:01:55;16.20;31.50
939;DHT22;456;53.584;9.968;2023-04-01T00:04:20;16.20;31.50
939;DHT22;456;53.584;9.968;2023-04-01T00:06:46;16.20;31.40
939;DHT22;456;53.584;9.968;2023-04-01T00:09:13;16.20;31.50
939;DHT22;456;53.584;9.968;2023-04-01T00:11:39;16.20;31.50
939;DHT22;456;53.584;9.968;2023-04-01T00:14:05;16.20;31.50
939;DHT22;456;53.584;9.968;2023-04-01T00:16:31;16.20;31.60
939;DHT22;456;53.584;9.968;2023-04-01T00:18:56;16.10;31.40
939;DHT22;456;53.584;9.968;2023-04-01T00:21:22;16.20;31.60
939;DHT22;456;53.584;9.968;2023-04-01T00:23:51;16.20;31.60
939;DHT22;456;53.584;9.968;2023-04-01T00:26:17;16.20;31.60
939;DHT22;456;53.584;9.968;2023-04-01T00:28:46;16.10;31.50
939;DHT22;456;53.584;9.968;2023-04-01T00:31:12;16.20;31.60
939;DHT22;456;53.584;9.968;2023-04-01T00:33:38;16.20;31.60
939;DHT22;456;53.584;9.968;2023-04-01T00:36:11;16.10;31.60
939;DHT22;456;53.584;9.968;2023-04-01T00:38:37;16.20;31.70
939;DHT22;456;53.584;9.968;2023-04-01T00:41:04;16.20;31.70
939;DHT22;456;53.584;9.968;2023-04-01T00:43:31;16.20;31.60
939;DHT22;456;53.584;9.968;2023-04-01T00:45:57;16.10;31.60
939;DHT22;456;53.584;9.968;2023-04-01T00:48:26;16.10;31.60
939;DHT22;456;53.584;9.968;2023-04-01T00:51:11;16.10;31.60
939;DHT22;456;53.584;9.968;2023-04-01T00:53:43;16.10;31.60
939;DHT22;456;53.584;9.968;2023-04-01T00:56:10;16.10;31.60
939;DHT22;456;53.584;9.968;2023-04-01T00:58:40;16.10;31.60
939;DHT22;456;53.584;9.968;2023-04-01T01:01:06;16.10;31.70
939;DHT22;456;53.584;9.968;2023-04-01T01:03:33;16.10;31.50
939;DHT22;456;53.584;9.968;2023-04-01T01:11:33;16.10;31.60
939;DHT22;456;53.584;9.968;2023-04-01T01:14:28;16.10;31.70
939;DHT22;456;53.584;9.968;2023-04-01T01:20:10;16.10;31.80
939;DHT22;456;53.584;9.968;2023-04-01T01:26:09;16.10;31.60
939;DHT22;456;53.584;9.968;2023-04-01T01:37:06;16.10;31.70
939;DHT22;456;53.584;9.968;2023-04-01T01:39:36;16.10;31.60
939;DHT22;456;53.584;9.968;2023-04-01T01:42:06;16.10;31.70
939;DHT22;456;53.584;9.968;2023-04-01T01:44:33;16.10;31.70
939;DHT22;456;53.584;9.968;2023-04-01T01:47:00;16.10;31.70
939;DHT22;456;53.584;9.968;2023-04-01T01:49:27;16.10;31.70
939;DHT22;456;53.584;9.968;2023-04-01T01:51:56;16.10;31.60
939;DHT22;456;53.584;9.968;2023-04-01T01:54:21;16.10;31.70
939;DHT22;456;53.584;9.968;2023-04-01T01:56:50;16.10;31.60
939;DHT22;456;53.584;9.968;2023-04-01T01:59:18;16.10;31.80
939;DHT22;456;53.584;9.968;2023-04-01T02:01:49;16.10;31.70
939;DHT22;456;53.584;9.968;2023-04-01T02:04:16;16.10;31.70
939;DHT22;456;53.584;9.968;2023-04-01T02:06:50;16.10;31.60
939;DHT22;456;53.584;9.968;2023-04-01T02:09:18;16.10;31.70
939;DHT22;456;53.584;9.968;2023-04-01T02:12:00;16.10;31.60
939;DHT22;456;53.584;9.968;2023-04-01T02:17:06;16.10;31.80
939;DHT22;456;53.584;9.968;2023-04-01T02:19:47;16.10;31.60
939;DHT22;456;53.584;9.968;2023-04-01T02:22:16;16.10;31.60
939;DHT22;456;53.584;9.968;2023-04-01T02:24:43;16.10;31.60
939;DHT22;456;53.584;9.968;2023-04-01T02:27:10;16.10;31.70
939;DHT22;456;53.584;9.968;2023-04-01T02:29:36;16.10;31.60
939;DHT22;456;53.584;9.968;2023-04-01T02:32:02;16.10;31.60
939;DHT22;456;53.584;9.968;2023-04-01T02:34:29;16.10;31.60
939;DHT22;456;53.584;9.968;2023-04-01T02:36:56;16.10;31.70
939;DHT22;456;53.584;9.968;2023-04-01T02:39:22;16.10;31.60
939;DHT22;456;53.584;9.968;2023-04-01T02:41:48;16.10;31.60
939;DHT22;456;53.584;9.968;2023-04-01T02:44:15;16.10;31.60
939;DHT22;456;53.584;9.968;2023-04-01T02:46:41;16.10;31.60
939;DHT22;456;53.584;9.968;2023-04-01T02:49:07;16.10;31.60
939;DHT22;456;53.584;9.968;2023-04-01T02:51:33;16.10;31.60
939;DHT22;456;53.584;9.968;2023-04-01T02:53:59;16.10;31.70
939;DHT22;456;53.584;9.968;2023-04-01T02:56:25;16.00;31.60
939;DHT22;456;53.584;9.968;2023-04-01T02:58:52;16.00;31.50
939;DHT22;456;53.584;9.968;2023-04-01T03:01:17;16.00;31.50
939;DHT22;456;53.584;9.968;2023-04-01T03:03:43;16.10;31.70
939;DHT22;456;53.584;9.968;2023-04-01T03:06:11;16.10;31.60
939;DHT22;456;53.584;9.968;2023-04-01T03:08:38;16.10;31.60
939;DHT22;456;53.584;9.968;2023-04-01T03:11:04;16.00;31.60
939;DHT22;456;53.584;9.968;2023-04-01T03:13:31;16.00;31.60
939;DHT22;456;53.584;9.968;2023-04-01T03:15:57;16.10;31.70
939;DHT22;456;53.584;9.968;2023-04-01T03:18:23;16.10;31.70
939;DHT22;456;53.584;9.968;2023-04-01T03:20:49;16.00;31.60
939;DHT22;456;53.584;9.968;2023-04-01T03:23:14;16.00;31.60
939;DHT22;456;53.584;9.968;2023-04-01T03:25:42;16.00;31.60
939;DHT22;456;53.584;9.968;2023-04-01T03:28:08;16.10;31.70
939;DHT22;456;53.584;9.968;2023-04-01T03:30:34;16.00;31.60
939;DHT22;456;53.584;9.968;2023-04-01T03:33:00;16.00;31.70
939;DHT22;456;53.584;9.968;2023-04-01T03:35:26;16.10;31.70
939;DHT22;456;53.584;9.968;2023-04-01T03:37:53;16.00;31.70
939;DHT22;456;53.584;9.968;2023-04-01T03:40:19;16.00;31.70
939;DHT22;456;53.584;9.968;2023-04-01T03:42:45;16.00;31.70
939;DHT22;456;53.584;9.968;2023-04-01T03:45:11;16.10;31.90
939;DHT22;456;53.584;9.968;2023-04-01T03:47:40;16.00;31.60
939;DHT22;456;53.584;9.968;2023-04-01T03:50:06;16.00;31.70
939;DHT22;456;53.584;9.968;2023-04-01T03:52:32;16.00;31.60
939;DHT22;456;53.584;9.968;2023-04-01T03:54:58;16.00;31.70
939;DHT22;456;53.584;9.968;2023-04-01T03:57:23;16.00;31.60
939;DHT22;456;53.584;9.968;2023-04-01T03:59:49;16.00;31.70
939;DHT22;456;53.584;9.968;2023-04-01T04:02:15;16.00;31.60
939;DHT22;456;53.584;9.968;2023-04-01T04:04:40;16.00;31.70
939;DHT22;456;53.584;9.968;2023-04-01T04:07:06;16.00;31.70
939;DHT22;456;53.584;9.968;2023-04-01T04:09:32;16.00;31.80
939;DHT22;456;53.584;9.968;2023-04-01T04:11:59;16.00;31.70
939;DHT22;456;53.584;9.968;2023-04-01T04:14:24;16.10;31.80
939;DHT22;456;53.584;9.968;2023-04-01T04:16:50;16.00;31.70
939;DHT22;456;53.584;9.968;2023-04-01T04:19:16;16.00;31.70
939;DHT22;456;53.584;9.968;2023-04-01T04:21:42;16.00;31.80
939;DHT22;456;53.584;9.968;2023-04-01T04:24:07;16.00;31.80
939;DHT22;456;53.584;9.968;2023-04-01T04:26:33;16.10;32.00
939;DHT22;456;53.584;9.968;2023-04-01T04:28:59;16.00;31.80
939;DHT22;456;53.584;9.968;2023-04-01T04:31:26;16.00;31.80
939;DHT22;456;53.584;9.968;2023-04-01T04:33:52;16.00;31.80
939;DHT22;456;53.584;9.968;2023-04-01T04:36:19;16.00;31.80
939;DHT22;456;53.584;9.968;2023-04-01T04:38:45;16.00;31.80
939;DHT22;456;53.584;9.968;2023-04-01T04:41:15;16.00;31.80
939;DHT22;456;53.584;9.968;2023-04-01T04:43:51;16.00;31.90
939;DHT22;456;53.584;9.968;2023-04-01T04:46:18;16.00;31.90
939;DHT22;456;53.584;9.968;2023-04-01T04:48:44;16.00;31.90
939;DHT22;456;53.584;9.968;2023-04-01T04:51:13;16.00;31.90
939;DHT22;456;53.584;9.968;2023-04-01T04:53:39;16.00;31.90
939;DHT22;456;53.584;9.968;2023-04-01T04:56:05;16.10;32.00
939;DHT22;456;53.584;9.968;2023-04-01T04:58:31;16.00;31.90
939;DHT22;456;53.584;9.968;2023-04-01T05:00:57;16.00;31.90
939;DHT22;456;53.584;9.968;2023-04-01T05:03:22;16.00;32.00
939;DHT22;456;53.584;9.968;2023-04-01T05:05:53;16.00;31.90
939;DHT22;456;53.584;9.968;2023-04-01T05:08:19;16.00;31.90
939;DHT22;456;53.584;9.968;2023-04-01T05:10:44;16.00;31.90
939;DHT22;456;53.584;9.968;2023-04-01T05:13:10;16.00;32.00
939;DHT22;456;53.584;9.968;2023-04-01T05:15:36;16.00;31.90
939;DHT22;456;53.584;9.968;2023-04-01T05:18:02;16.00;32.00
939;DHT22;456;53.584;9.968;2023-04-01T05:20:28;16.00;32.00
939;DHT22;456;53.584;9.968;2023-04-01T05:22:58;16.00;32.10
939;DHT22;456;53.584;9.968;2023-04-01T05:25:24;16.00;32.00
939;DHT22;456;53.584;9.968;2023-04-01T05:27:50;16.00;32.00
939;DHT22;456;53.584;9.968;2023-04-01T05:30:15;16.00;32.00
939;DHT22;456;53.584;9.968;2023-04-01T05:32:41;16.00;32.00
939;DHT22;456;53.584;9.968;2023-04-01T05:35:07;16.00;32.00
939;DHT22;456;53.584;9.968;2023-04-01T05:37:36;16.00;32.00
939;DHT22;456;53.584;9.968;2023-04-01T05:40:02;16.00;32.10
939;DHT22;456;53.584;9.968;2023-04-01T05:42:28;16.00;31.90
939;DHT22;456;53.584;9.968;2023-04-01T05:44:54;16.10;31.40
939;DHT22;456;53.584;9.968;2023-04-01T05:47:21;16.10;30.40
939;DHT22;456;53.584;9.968;2023-04-01T05:49:47;16.20;30.40
939;DHT22;456;53.584;9.968;2023-04-01T05:52:12;16.20;30.40
939;DHT22;456;53.584;9.968;2023-04-01T05:54:38;16.30;30.50
939;DHT22;456;53.584;9.968;2023-04-01T05:57:03;16.30;30.50
939;DHT22;456;53.584;9.968;2023-04-01T05:59:29;16.40;30.50
939;DHT22;456;53.584;9.968;2023-04-01T06:01:56;16.40;30.60
939;DHT22;456;53.584;9.968;2023-04-01T06:04:23;16.40;30.50
939;DHT22;456;53.584;9.968;2023-04-01T06:06:49;16.50;30.60
939;DHT22;456;53.584;9.968;2023-04-01T06:09:22;16.50;30.60
939;DHT22;456;53.584;9.968;2023-04-01T06:14:47;16.50;30.60
939;DHT22;456;53.584;9.968;2023-04-01T06:20:24;16.50;30.60
939;DHT22;456;53.584;9.968;2023-04-01T06:23:06;16.50;30.60
939;DHT22;456;53.584;9.968;2023-04-01T06:31:30;16.50;30.40
939;DHT22;456;53.584;9.968;2023-04-01T06:46:48;16.50;30.30
939;DHT22;456;53.584;9.968;2023-04-01T06:49:05;16.60;30.50
939;DHT22;456;53.584;9.968;2023-04-01T06:54:21;16.60;30.70
939;DHT22;456;53.584;9.968;2023-04-01T06:56:54;16.50;30.60
939;DHT22;456;53.584;9.968;2023-04-01T06:59:28;16.50;30.60
939;DHT22;456;53.584;9.968;2023-04-01T07:01:59;16.50;30.60
939;DHT22;456;53.584;9.968;2023-04-01T07:04:30;16.50;30.60
939;DHT22;456;53.584;9.968;2023-04-01T07:07:03;16.50;30.60
939;DHT22;456;53.584;9.968;2023-04-01T07:09:35;16.50;30.60
939;DHT22;456;53.584;9.968;2023-04-01T07:12:09;16.50;30.60
939;DHT22;456;53.584;9.968;2023-04-01T07:14:38;16.50;30.60
939;DHT22;456;53.584;9.968;2023-04-01T07:17:17;16.50;30.60
939;DHT22;456;53.584;9.968;2023-04-01T07:19:46;16.50;30.60
939;DHT22;456;53.584;9.968;2023-04-01T07:22:52;16.50;30.70
939;DHT22;456;53.584;9.968;2023-04-01T07:25:23;16.50;30.60
939;DHT22;456;53.584;9.968;2023-04-01T07:27:53;16.50;30.60
939;DHT22;456;53.584;9.968;2023-04-01T07:30:23;16.50;30.70
939;DHT22;456;53.584;9.968;2023-04-01T07:33:19;16.50;30.70
939;DHT22;456;53.584;9.968;2023-04-01T07:46:54;16.60;31.50
939;DHT22;456;53.584;9.968;2023-04-01T07:55:30;16.70;30.10
939;DHT22;456;53.584;9.968;2023-04-01T07:58:18;16.70;30.10
939;DHT22;456;53.584;9.968;2023-04-01T08:01:04;16.70;30.10
939;DHT22;456;53.584;9.968;2023-04-01T08:03:53;16.70;30.20
939;DHT22;456;53.584;9.968;2023-04-01T08:06:53;16.60;30.20
939;DHT22;456;53.584;9.968;2023-04-01T08:21:05;16.70;30.10
939;DHT22;456;53.584;9.968;2023-04-01T08:23:36;16.70;30.10
939;DHT22;456;53.584;9.968;2023-04-01T08:26:13;16.70;30.10
939;DHT22;456;53.584;9.968;2023-04-01T08:29:02;16.60;30.00
939;DHT22;456;53.584;9.968;2023-04-01T08:32:02;16.60;30.00
939;DHT22;456;53.584;9.968;2023-04-01T08:34:54;16.60;30.00
939;DHT22;456;53.584;9.968;2023-04-01T08:37:30;16.70;30.00
939;DHT22;456;53.584;9.968;2023-04-01T08:49:03;16.70;30.00
939;DHT22;456;53.584;9.968;2023-04-01T08:57:21;16.70;30.00
939;DHT22;456;53.584;9.968;2023-04-01T09:19:17;16.80;29.80
939;DHT22;456;53.584;9.968;2023-04-01T09:27:54;16.70;29.80
939;DHT22;456;53.584;9.968;2023-04-01T09:31:22;16.80;29.80
939;DHT22;456;53.584;9.968;2023-04-01T09:36:50;16.80;29.80
939;DHT22;456;53.584;9.968;2023-04-01T09:39:36;16.80;29.80
939;DHT22;456;53.584;9.968;2023-04-01T09:48:13;16.80;29.80
939;DHT22;456;53.584;9.968;2023-04-01T09:50:52;16.80;29.80
939;DHT22;456;53.584;9.968;2023-04-01T09:53:42;16.70;29.70
939;DHT22;456;53.584;9.968;2023-04-01T10:05:17;16.70;29.70
939;DHT22;456;53.584;9.968;2023-04-01T10:08:05;16.80;29.70
939;DHT22;456;53.584;9.968;2023-04-01T10:11:01;16.80;29.70
939;DHT22;456;53.584;9.968;2023-04-01T10:35:07;16.80;29.50
939;DHT22;456;53.584;9.968;2023-04-01T10:54:20;16.80;29.50
939;DHT22;456;53.584;9.968;2023-04-01T11:00:03;16.80;29.50
939;DHT22;456;53.584;9.968;2023-04-01T11:18:08;16.80;29.40
939;DHT22;456;53.584;9.968;2023-04-01T11:26:12;16.80;29.40
939;DHT22;456;53.584;9.968;2023-04-01T11:45:22;16.80;29.30
939;DHT22;456;53.584;9.968;2023-04-01T11:48:07;16.80;29.30
939;DHT22;456;53.584;9.968;2023-04-01T11:56:45;16.80;29.30
939;DHT22;456;53.584;9.968;2023-04-01T12:01:54;16.80;29.30
939;DHT22;456;53.584;9.968;2023-04-01T12:21:34;16.90;29.30
939;DHT22;456;53.584;9.968;2023-04-01T12:32:23;16.90;29.20
939;DHT22;456;53.584;9.968;2023-04-01T12:46:36;16.90;29.20
939;DHT22;456;53.584;9.968;2023-04-01T12:54:47;16.90;29.20
939;DHT22;456;53.584;9.968;2023-04-01T13:11:02;16.90;29.10
939;DHT22;456;53.584;9.968;2023-04-01T13:16:27;16.90;29.20
939;DHT22;456;53.584;9.968;2023-04-01T13:19:03;16.90;29.20
939;DHT22;456;53.584;9.968;2023-04-01T13:21:33;16.90;29.20
939;DHT22;456;53.584;9.968;2023-04-01T13:29:33;16.90;29.30
939;DHT22;456;53.584;9.968;2023-04-01T13:35:44;16.90;29.30
939;DHT22;456;53.584;9.968;2023-04-01T13:38:01;16.90;29.40
939;DHT22;456;53.584;9.968;2023-04-01T13:43:18;16.90;29.30
939;DHT22;456;53.584;9.968;2023-04-01T13:56:59;17.00;29.60
939;DHT22;456;53.584;9.968;2023-04-01T13:59:55;17.00;29.90
939;DHT22;456;53.584;9.968;2023-04-01T14:02:51;17.00;30.00
939;DHT22;456;53.584;9.968;2023-04-01T14:08:14;17.10;30.10
939;DHT22;456;53.584;9.968;2023-04-01T14:11:16;17.10;31.20
939;DHT22;456;53.584;9.968;2023-04-01T14:14:05;17.20;31.30
939;DHT22;456;53.584;9.968;2023-04-01T14:22:37;17.20;31.20
939;DHT22;456;53.584;9.968;2023-04-01T14:28:36;17.20;31.60
939;DHT22;456;53.584;9.968;2023-04-01T14:33:59;17.20;31.90
939;DHT22;456;53.584;9.968;2023-04-01T14:48:25;17.20;33.40
939;DHT22;456;53.584;9.968;2023-04-01T14:50:53;17.20;33.70
939;DHT22;456;53.584;9.968;2023-04-01T14:56:00;17.20;33.60
939;DHT22;456;53.584;9.968;2023-04-01T14:58:46;17.30;33.70
939;DHT22;456;53.584;9.968;2023-04-01T15:01:24;17.30;33.60
939;DHT22;456;53.584;9.968;2023-04-01T15:09:32;17.30;33.50
939;DHT22;456;53.584;9.968;2023-04-01T15:28:33;17.20;34.10
939;DHT22;456;53.584;9.968;2023-04-01T15:38:57;17.20;34.10
939;DHT22;456;53.584;9.968;2023-04-01T15:44:48;17.20;34.30
939;DHT22;456;53.584;9.968;2023-04-01T15:49:57;17.20;34.60
939;DHT22;456;53.584;9.968;2023-04-01T15:58:16;17.10;34.70
939;DHT22;456;53.584;9.968;2023-04-01T16:09:24;17.20;33.90
939;DHT22;456;53.584;9.968;2023-04-01T16:14:48;17.30;33.70
939;DHT22;456;53.584;9.968;2023-04-01T16:22:39;17.40;33.40
939;DHT22;456;53.584;9.968;2023-04-01T16:25:19;17.50;33.30
939;DHT22;456;53.584;9.968;2023-04-01T16:36:20;17.50;33.10
939;DHT22;456;53.584;9.968;2023-04-01T16:41:31;17.60;33.20
939;DHT22;456;53.584;9.968;2023-04-01T16:44:28;17.60;33.10
939;DHT22;456;53.584;9.968;2023-04-01T16:46:56;17.60;33.10
939;DHT22;456;53.584;9.968;2023-04-01T16:49:29;17.60;33.00
939;DHT22;456;53.584;9.968;2023-04-01T16:55:18;17.60;33.00
939;DHT22;456;53.584;9.968;2023-04-01T16:57:51;17.60;32.90
939;DHT22;456;53.584;9.968;2023-04-01T17:00:22;17.60;32.80
939;DHT22;456;53.584;9.968;2023-04-01T17:05:43;17.60;32.60
939;DHT22;456;53.584;9.968;2023-04-01T17:08:37;17.60;32.60
939;DHT22;456;53.584;9.968;2023-04-01T17:11:18;17.50;32.40
939;DHT22;456;53.584;9.968;2023-04-01T17:19:18;17.50;32.40
939;DHT22;456;53.584;9.968;2023-04-01T17:30:17;17.50;31.90
939;DHT22;456;53.584;9.968;2023-04-01T17:35:33;17.50;31.80
939;DHT22;456;53.584;9.968;2023-04-01T17:43:47;17.50;31.60
939;DHT22;456;53.584;9.968;2023-04-01T17:49:37;17.50;31.60
939;DHT22;456;53.584;9.968;2023-04-01T18:00:16;17.50;31.50
939;DHT22;456;53.584;9.968;2023-04-01T18:03:06;17.50;31.50
939;DHT22;456;53.584;9.968;2023-04-01T18:22:49;17.50;31.50
939;DHT22;456;53.584;9.968;2023-04-01T18:25:37;17.50;31.50
939;DHT22;456;53.584;9.968;2023-04-01T18:28:22;17.50;31.50
939;DHT22;456;53.584;9.968;2023-04-01T18:31:26;17.50;31.50
939;DHT22;456;53.584;9.968;2023-04-01T18:34:06;17.50;31.50
939;DHT22;456;53.584;9.968;2023-04-01T18:36:59;17.50;31.50
939;DHT22;456;53.584;9.968;2023-04-01T18:39:43;17.50;31.50
939;DHT22;456;53.584;9.968;2023-04-01T18:45:32;17.50;31.20
939;DHT22;456;53.584;9.968;2023-04-01T18:48:11;17.50;31.20
939;DHT22;456;53.584;9.968;2023-04-01T18:56:13;17.50;31.10
939;DHT22;456;53.584;9.968;2023-04-01T18:59:10;17.40;30.80
939;DHT22;456;53.584;9.968;2023-04-01T19:04:26;17.40;30.80
939;DHT22;456;53.584;9.968;2023-04-01T19:06:58;17.50;30.90
939;DHT22;456;53.584;9.968;2023-04-01T19:12:57;17.40;30.70
939;DHT22;456;53.584;9.968;2023-04-01T19:15:24;17.40;30.60
939;DHT22;456;53.584;9.968;2023-04-01T19:18:34;17.40;30.60
939;DHT22;456;53.584;9.968;2023-04-01T19:21:39;17.40;30.60
939;DHT22;456;53.584;9.968;2023-04-01T19:24:40;17.40;30.50
939;DHT22;456;53.584;9.968;2023-04-01T19:27:34;17.40;30.50
939;DHT22;456;53.584;9.968;2023-04-01T19:32:56;17.40;30.50
939;DHT22;456;53.584;9.968;2023-04-01T19:37:57;17.40;30.40
939;DHT22;456;53.584;9.968;2023-04-01T19:40:47;17.40;30.50
939;DHT22;456;53.584;9.968;2023-04-01T19:46:11;17.40;30.50
939;DHT22;456;53.584;9.968;2023-04-01T19:48:58;17.40;30.50
939;DHT22;456;53.584;9.968;2023-04-01T19:57:04;17.40;30.40
939;DHT22;456;53.584;9.968;2023-04-01T20:04:35;17.40;30.40
939;DHT22;456;53.584;9.968;2023-04-01T20:12:51;17.30;30.30
939;DHT22;456;53.584;9.968;2023-04-01T20:15:31;17.30;30.30
939;DHT22;456;53.584;9.968;2023-04-01T20:18:00;17.30;30.30
939;DHT22;456;53.584;9.968;2023-04-01T20:20:29;17.30;30.30
939;DHT22;456;53.584;9.968;2023-04-01T20:23:26;17.30;30.30
939;DHT22;456;53.584;9.968;2023-04-01T20:26:01;17.30;30.30
939;DHT22;456;53.584;9.968;2023-04-01T20:28:43;17.30;30.30
939;DHT22;456;53.584;9.968;2023-04-01T20:34:32;17.30;30.30
939;DHT22;456;53.584;9.968;2023-04-01T20:37:29;17.20;30.20
939;DHT22;456;53.584;9.968;2023-04-01T20:43:00;17.20;30.10
939;DHT22;456;53.584;9.968;2023-04-01T20:50:58;17.20;30.10
939;DHT22;456;53.584;9.968;2023-04-01T20:53:43;17.20;30.10
939;DHT22;456;53.584;9.968;2023-04-01T20:58:58;17.20;30.00
939;DHT22;456;53.584;9.968;2023-04-01T21:04:22;17.20;30.00
939;DHT22;456;53.584;9.968;2023-04-01T21:07:11;17.20;30.00
939;DHT22;456;53.584;9.968;2023-04-01T21:12:24;17.10;29.80
939;DHT22;456;53.584;9.968;2023-04-01T21:15:27;17.10;29.70
939;DHT22;456;53.584;9.968;2023-04-01T21:21:21;17.10;29.60
939;DHT22;456;53.584;9.968;2023-04-01T21:24:05;17.10;29.50
939;DHT22;456;53.584;9.968;2023-04-01T21:27:11;17.10;29.50
939;DHT22;456;53.584;9.968;2023-04-01T21:37:52;17.10;29.30
939;DHT22;456;53.584;9.968;2023-04-01T21:52:10;17.10;29.00
939;DHT22;456;53.584;9.968;2023-04-01T22:00:16;17.00;28.80
939;DHT22;456;53.584;9.968;2023-04-01T22:06:03;17.00;28.60
939;DHT22;456;53.584;9.968;2023-04-01T22:13:54;16.90;28.30
939;DHT22;456;53.584;9.968;2023-04-01T22:16:44;16.90;28.00
939;DHT22;456;53.584;9.968;2023-04-01T22:28:09;16.90;27.90
939;DHT22;456;53.584;9.968;2023-04-01T22:30:52;16.90;27.80
939;DHT22;456;53.584;9.968;2023-04-01T22:39:20;16.80;27.30
939;DHT22;456;53.584;9.968;2023-04-01T22:47:26;16.80;27.20
939;DHT22;456;53.584;9.968;2023-04-01T22:50:02;16.80;27.20
939;DHT22;456;53.584;9.968;2023-04-01T22:52:33;16.80;27.00
939;DHT22;456;53.584;9.968;2023-04-01T22:55:15;16.80;27.20
939;DHT22;456;53.584;9.968;2023-04-01T22:57:58;16.80;27.20
939;DHT22;456;53.584;9.968;2023-04-01T23:00:35;16.80;27.00
939;DHT22;456;53.584;9.968;2023-04-01T23:03:22;16.80;26.90
939;DHT22;456;53.584;9.968;2023-04-01T23:05:58;16.80;26.60
939;DHT22;456;53.584;9.968;2023-04-01T23:11:02;16.80;26.70
939;DHT22;456;53.584;9.968;2023-04-01T23:13:34;16.80;26.50
939;DHT22;456;53.584;9.968;2023-04-01T23:16:01;16.70;26.40
939;DHT22;456;53.584;9.968;2023-04-01T23:18:33;16.70;26.40
939;DHT22;456;53.584;9.968;2023-04-01T23:21:14;16.70;26.30
939;DHT22;456;53.584;9.968;2023-04-01T23:26:59;16.70;26.20
939;DHT22;456;53.584;9.968;2023-04-01T23:29:26;16.70;25.90
939;DHT22;456;53.584;9.968;2023-04-01T23:32:00;16.70;26.10
939;DHT22;456;53.584;9.968;2023-04-01T23:34:34;16.70;25.80
939;DHT22;456;53.584;9.968;2023-04-01T23:37:07;16.70;25.90
939;DHT22;456;53.584;9.968;2023-04-01T23:39:42;16.70;26.10
939;DHT22;456;53.584;9.968;2023-04-01T23:42:21;16.70;26.50
939;DHT22;456;53.584;9.968;2023-04-01T23:44:50;16.70;27.10
939;DHT22;456;53.584;9.968;2023-04-01T23:47:20;16.80;27.80
939;DHT22;456;53.584;9.968;2023-04-01T23:52:42;16.80;27.90
939;DHT22;456;53.584;9.968;2023-04-01T23:58:11;16.90;27.90
